createdAt,value
2023-03-13T00:01:14.526Z,65.73
2023-03-13T00:03:41.715Z,65.98
2023-03-13T00:06:08.906Z,66.00
2023-03-13T00:08:36.205Z,65.72
2023-03-13T00:11:04.048Z,65.67
2023-03-13T00:13:30.825Z,65.89
2023-03-13T00:16:05.485Z,66.16
2023-03-13T00:18:32.244Z,66.46
2023-03-13T00:21:07.832Z,66.46
2023-03-13T00:23:36.710Z,66.51
2023-03-13T00:26:05.436Z,66.52
2023-03-13T00:28:34.468Z,66.60
2023-03-13T00:31:10.486Z,66.66
2023-03-13T00:33:39.600Z,66.63
2023-03-13T00:36:09.505Z,66.91
2023-03-13T00:38:36.633Z,66.83
2023-03-13T00:41:11.494Z,66.84
2023-03-13T00:43:39.502Z,67.01
2023-03-13T00:46:06.613Z,67.02
2023-03-13T00:48:33.658Z,67.16
2023-03-13T00:51:00.994Z,67.30
2023-03-13T00:53:27.708Z,67.27
2023-03-13T00:55:58.870Z,67.33
2023-03-13T00:58:27.328Z,67.00
2023-03-13T01:00:54.635Z,67.13
2023-03-13T01:03:24.987Z,67.25
2023-03-13T01:05:59.319Z,66.92
2023-03-13T01:08:27.174Z,67.04
2023-03-13T01:11:08.846Z,67.10
2023-03-13T01:13:36.076Z,66.92
2023-03-13T01:16:05.628Z,66.87
2023-03-13T01:18:34.058Z,66.84
2023-03-13T01:21:00.978Z,67.03
2023-03-13T01:23:27.659Z,67.00
2023-03-13T01:25:55.078Z,67.01
2023-03-13T01:28:22.900Z,66.93
2023-03-13T01:30:49.712Z,66.91
2023-03-13T01:33:16.626Z,66.77
2023-03-13T01:35:43.667Z,66.88
2023-03-13T01:38:10.549Z,67.08
2023-03-13T01:40:42.631Z,67.22
2023-03-13T01:43:30.238Z,67.49
2023-03-13T01:45:59.129Z,67.52
2023-03-13T01:48:39.490Z,67.55
2023-03-13T01:51:11.196Z,67.72
2023-03-13T01:53:43.379Z,67.89
2023-03-13T01:56:15.117Z,67.90
2023-03-13T01:58:42.199Z,67.91
2023-03-13T02:01:09.436Z,67.99
2023-03-13T02:03:37.478Z,68.11
2023-03-13T02:06:05.404Z,68.28
2023-03-13T02:08:49.738Z,68.27
2023-03-13T02:11:25.973Z,68.43
2023-03-13T02:13:53.789Z,68.43
2023-03-13T02:16:21.798Z,68.40
2023-03-13T02:18:48.706Z,68.60
2023-03-13T02:21:56.441Z,68.61
2023-03-13T02:24:32.108Z,68.80
2023-03-13T02:26:59.330Z,68.83
2023-03-13T02:29:27.090Z,68.87
2023-03-13T02:31:54.018Z,68.98
2023-03-13T02:34:28.900Z,69.00
2023-03-13T02:36:58.673Z,68.95
2023-03-13T02:39:27.519Z,69.05
2023-03-13T02:41:55.251Z,69.22
2023-03-13T02:44:22.067Z,69.32
2023-03-13T02:46:51.937Z,69.12
2023-03-13T02:49:24.353Z,69.34
2023-03-13T02:51:53.951Z,69.48
2023-03-13T02:54:24.202Z,69.49
2023-03-13T02:56:55.960Z,69.36
2023-03-13T02:59:24.167Z,69.42
2023-03-13T03:01:52.159Z,69.63
2023-03-13T03:04:23.412Z,69.62
2023-03-13T03:06:53.618Z,69.69
2023-03-13T03:09:20.857Z,69.72
2023-03-13T03:11:48.740Z,69.69
2023-03-13T03:14:16.213Z,69.85
2023-03-13T03:16:45.193Z,69.81
2023-03-13T03:19:12.182Z,69.91
2023-03-13T03:21:39.196Z,69.98
2023-03-13T03:24:06.177Z,70.07
2023-03-13T03:26:33.439Z,70.23
2023-03-13T03:29:00.366Z,70.17
2023-03-13T03:31:27.396Z,70.54
2023-03-13T03:33:56.817Z,70.50
2023-03-13T03:36:23.855Z,70.88
2023-03-13T03:38:51.000Z,71.24
2023-03-13T03:41:19.335Z,71.86
2023-03-13T03:43:46.991Z,71.84
2023-03-13T03:46:15.085Z,71.98
2023-03-13T03:48:42.428Z,71.75
2023-03-13T03:51:09.623Z,72.11
2023-03-13T03:53:38.822Z,72.41
2023-03-13T03:56:06.093Z,72.71
2023-03-13T03:58:32.948Z,73.06
2023-03-13T04:01:07.117Z,73.24
2023-03-13T04:03:33.884Z,73.45
2023-03-13T04:06:00.540Z,73.60
2023-03-13T04:08:27.226Z,73.54
2023-03-13T04:10:54.242Z,74.25
2023-03-13T04:13:25.081Z,74.36
2023-03-13T04:15:52.060Z,74.52
2023-03-13T04:18:20.316Z,75.04
2023-03-13T04:20:46.797Z,75.41
2023-03-13T04:23:13.488Z,75.75
2023-03-13T04:25:40.167Z,76.50
2023-03-13T04:28:11.105Z,76.62
2023-03-13T04:30:42.564Z,76.45
2023-03-13T04:33:28.719Z,76.67
2023-03-13T04:36:25.091Z,76.69
2023-03-13T04:39:05.812Z,77.39
2023-03-13T04:41:56.373Z,77.08
2023-03-13T04:44:43.512Z,77.32
2023-03-13T04:47:25.180Z,77.67
2023-03-13T04:50:12.374Z,77.62
2023-03-13T04:53:02.121Z,77.91
2023-03-13T04:55:55.577Z,77.83
2023-03-13T04:58:48.933Z,78.35
2023-03-13T05:01:30.624Z,78.44
2023-03-13T05:04:15.903Z,78.35
2023-03-13T05:06:57.655Z,78.17
2023-03-13T05:09:41.165Z,78.23
2023-03-13T05:12:26.364Z,78.67
2023-03-13T05:14:58.168Z,78.89
2023-03-13T05:17:33.734Z,78.82
2023-03-13T05:20:32.745Z,78.85
2023-03-13T05:23:19.735Z,78.66
2023-03-13T05:26:03.996Z,78.93
2023-03-13T05:28:30.569Z,79.09
2023-03-13T05:31:23.547Z,79.02
2023-03-13T05:34:02.533Z,79.44
2023-03-13T05:36:41.278Z,79.69
2023-03-13T05:39:37.374Z,79.93
2023-03-13T05:42:17.729Z,79.75
2023-03-13T05:45:00.400Z,79.83
2023-03-13T05:47:55.928Z,80.09
2023-03-13T05:50:53.802Z,80.44
2023-03-13T05:53:46.609Z,80.39
2023-03-13T05:56:25.187Z,80.37
2023-03-13T05:59:17.956Z,80.37
2023-03-13T06:02:09.385Z,80.82
2023-03-13T06:04:38.889Z,80.85
2023-03-13T06:07:05.487Z,81.14
2023-03-13T06:09:32.217Z,81.48
2023-03-13T06:11:59.097Z,81.42
2023-03-13T06:14:26.025Z,81.57
2023-03-13T06:17:11.155Z,81.70
2023-03-13T06:19:37.664Z,81.84
2023-03-13T06:22:04.190Z,82.01
2023-03-13T06:24:31.156Z,81.93
2023-03-13T06:26:57.684Z,82.03
2023-03-13T06:29:24.406Z,82.01
2023-03-13T06:31:51.524Z,81.82
2023-03-13T06:34:18.293Z,82.11
2023-03-13T06:36:44.926Z,82.27
2023-03-13T06:39:12.414Z,82.25
2023-03-13T06:41:38.875Z,81.99
2023-03-13T06:44:05.391Z,82.04
2023-03-13T06:46:32.286Z,82.11
2023-03-13T06:49:00.098Z,82.18
2023-03-13T06:51:26.612Z,82.12
2023-03-13T06:53:53.563Z,82.03
2023-03-13T06:56:21.131Z,82.08
2023-03-13T06:58:48.577Z,81.93
2023-03-13T07:01:16.867Z,81.87
2023-03-13T07:03:43.705Z,81.60
2023-03-13T07:06:11.831Z,81.78
2023-03-13T07:08:38.971Z,81.59
2023-03-13T07:11:10.695Z,81.42
2023-03-13T07:13:37.818Z,81.39
2023-03-13T07:16:08.140Z,81.49
2023-03-13T07:18:35.602Z,81.33
2023-03-13T07:21:04.625Z,81.25
2023-03-13T07:23:33.280Z,81.09
2023-03-13T07:26:05.887Z,81.03
2023-03-13T07:28:34.109Z,80.97
2023-03-13T07:31:21.117Z,81.13
2023-03-13T07:33:47.915Z,80.97
2023-03-13T07:36:15.671Z,80.96
2023-03-13T07:38:43.299Z,80.82
2023-03-13T07:41:12.296Z,80.83
2023-03-13T07:43:38.905Z,80.80
2023-03-13T07:46:07.867Z,80.55
2023-03-13T07:48:36.922Z,80.47
2023-03-13T07:51:10.903Z,80.24
2023-03-13T07:53:37.732Z,80.09
2023-03-13T07:56:07.680Z,79.92
2023-03-13T07:58:36.716Z,80.06
2023-03-13T08:01:09.998Z,79.92
2023-03-13T08:03:37.421Z,79.88
2023-03-13T08:06:06.964Z,79.61
2023-03-13T08:08:33.839Z,79.48
2023-03-13T08:11:06.859Z,79.56
2023-03-13T08:13:34.830Z,79.39
2023-03-13T08:16:23.027Z,79.39
2023-03-13T08:18:52.844Z,79.38
2023-03-13T08:21:22.802Z,79.19
2023-03-13T08:23:53.526Z,79.43
2023-03-13T08:26:21.910Z,79.23
2023-03-13T08:28:52.947Z,79.00
2023-03-13T08:31:25.277Z,78.96
2023-03-13T08:33:52.619Z,78.82
2023-03-13T08:36:21.161Z,78.67
2023-03-13T08:38:48.312Z,78.39
2023-03-13T08:41:23.766Z,78.23
2023-03-13T08:43:53.904Z,77.85
2023-03-13T08:46:21.354Z,77.66
2023-03-13T08:48:52.659Z,77.72
2023-03-13T08:51:22.316Z,77.51
2023-03-13T08:53:49.747Z,77.13
2023-03-13T08:56:19.381Z,76.62
2023-03-13T08:58:50.607Z,76.02
2023-03-13T09:01:17.499Z,75.81
2023-03-13T09:03:44.218Z,76.02
2023-03-13T09:06:11.941Z,75.75
2023-03-13T09:08:39.969Z,75.54
2023-03-13T09:11:12.968Z,75.39
2023-03-13T09:13:42.851Z,74.86
2023-03-13T09:16:14.732Z,74.90
2023-03-13T09:18:42.239Z,74.85
2023-03-13T09:21:13.560Z,74.22
2023-03-13T09:23:40.529Z,73.90
2023-03-13T09:26:07.993Z,74.07
2023-03-13T09:28:35.417Z,73.30
2023-03-13T09:31:10.794Z,72.80
2023-03-13T09:33:38.106Z,72.28
2023-03-13T09:36:05.531Z,72.48
2023-03-13T09:38:32.712Z,71.85
2023-03-13T09:41:06.915Z,71.43
2023-03-13T09:43:54.799Z,71.39
2023-03-13T09:46:36.562Z,71.61
2023-03-13T09:49:24.476Z,71.51
2023-03-13T09:52:01.025Z,71.48
2023-03-13T09:54:43.037Z,71.29
2023-03-13T09:57:17.186Z,71.24
2023-03-13T09:59:50.778Z,70.44
2023-03-13T10:02:35.313Z,70.14
2023-03-13T10:05:19.949Z,70.50
2023-03-13T10:07:46.941Z,70.57
2023-03-13T10:10:33.885Z,69.91
2023-03-13T10:13:19.198Z,69.82
2023-03-13T10:15:53.611Z,69.94
2023-03-13T10:18:22.966Z,69.84
2023-03-13T10:20:57.904Z,69.74
2023-03-13T10:23:40.106Z,69.66
2023-03-13T10:26:17.386Z,69.99
2023-03-13T10:28:44.207Z,69.92
2023-03-13T10:31:22.598Z,69.93
2023-03-13T10:33:49.602Z,70.01
2023-03-13T10:36:16.364Z,70.19
2023-03-13T10:38:48.386Z,70.44
2023-03-13T10:41:31.307Z,70.06
2023-03-13T10:44:05.905Z,69.83
2023-03-13T10:46:39.490Z,69.77
2023-03-13T10:49:20.123Z,69.70
2023-03-13T10:51:55.493Z,69.41
2023-03-13T10:54:30.948Z,69.44
2023-03-13T10:57:19.371Z,68.95
2023-03-13T10:59:48.531Z,69.10
2023-03-13T11:02:20.999Z,68.80
2023-03-13T11:04:52.820Z,68.79
2023-03-13T11:07:35.467Z,68.85
2023-03-13T11:10:16.922Z,68.08
2023-03-13T11:12:54.354Z,68.59
2023-03-13T11:15:49.496Z,68.14
2023-03-13T11:18:19.032Z,67.30
2023-03-13T11:20:46.669Z,67.24
2023-03-13T11:23:27.392Z,67.59
2023-03-13T11:26:58.484Z,66.55
2023-03-13T11:29:58.244Z,66.35
2023-03-13T11:33:02.726Z,66.64
2023-03-13T11:35:35.707Z,66.29
2023-03-13T11:38:10.961Z,64.93
2023-03-13T11:40:54.327Z,64.73
2023-03-13T11:43:45.404Z,64.18
2023-03-13T11:46:33.556Z,64.61
2023-03-13T11:49:09.851Z,64.42
2023-03-13T11:52:02.642Z,64.05
2023-03-13T11:54:48.042Z,63.10
2023-03-13T11:57:37.956Z,63.67
2023-03-13T12:00:27.320Z,63.56
2023-03-13T12:03:04.324Z,63.33
2023-03-13T12:05:45.658Z,63.16
2023-03-13T12:08:20.676Z,63.73
2023-03-13T12:11:08.083Z,63.84
2023-03-13T12:13:40.134Z,63.97
2023-03-13T12:16:13.851Z,64.28
2023-03-13T12:18:43.656Z,64.13
2023-03-13T12:21:50.144Z,64.04
2023-03-13T12:24:29.311Z,63.80
2023-03-13T12:27:02.009Z,64.99
2023-03-13T12:29:31.605Z,65.14
2023-03-13T12:32:13.094Z,64.63
2023-03-13T12:35:12.211Z,65.28
2023-03-13T12:37:49.713Z,65.73
2023-03-13T12:40:49.872Z,65.89
2023-03-13T12:43:54.452Z,66.41
2023-03-13T12:46:54.738Z,66.65
2023-03-13T12:49:55.826Z,67.00
2023-03-13T12:52:34.384Z,67.21
2023-03-13T12:55:01.577Z,67.27
2023-03-13T12:57:59.227Z,67.07
2023-03-13T13:00:29.480Z,67.67
2023-03-13T13:03:17.508Z,68.10
2023-03-13T13:06:03.594Z,68.84
2023-03-13T13:08:51.979Z,69.71
2023-03-13T13:11:34.186Z,70.24
2023-03-13T13:14:06.649Z,70.66
2023-03-13T13:16:33.579Z,70.84
2023-03-13T13:19:25.357Z,71.56
2023-03-13T13:22:29.649Z,71.97
2023-03-13T13:24:58.313Z,72.52
2023-03-13T13:27:31.337Z,72.93
2023-03-13T13:30:16.420Z,73.31
2023-03-13T13:32:46.875Z,73.66
2023-03-13T13:35:34.368Z,73.96
2023-03-13T13:38:19.582Z,74.57
2023-03-13T13:41:04.984Z,75.41
2023-03-13T13:43:43.446Z,75.51
2023-03-13T13:46:16.720Z,76.12
2023-03-13T13:48:45.219Z,76.46
2023-03-13T13:51:13.383Z,76.90
2023-03-13T13:53:45.889Z,77.17
2023-03-13T13:56:48.655Z,77.87
2023-03-13T13:59:28.160Z,78.33
2023-03-13T14:02:19.796Z,78.40
2023-03-13T14:04:54.741Z,78.96
2023-03-13T14:07:25.291Z,78.72
2023-03-13T14:09:57.514Z,79.08
2023-03-13T14:12:30.203Z,78.93
2023-03-13T14:15:12.605Z,78.51
2023-03-13T14:17:48.154Z,78.66
2023-03-13T14:20:34.457Z,78.94
2023-03-13T14:23:09.637Z,78.92
2023-03-13T14:25:45.750Z,78.91
2023-03-13T14:28:30.614Z,78.73
2023-03-13T14:30:58.296Z,78.71
2023-03-13T14:33:27.101Z,78.84
2023-03-13T14:35:54.885Z,78.92
2023-03-13T14:38:24.823Z,78.88
2023-03-13T14:40:53.319Z,78.79
2023-03-13T14:43:30.480Z,78.64
2023-03-13T14:45:58.055Z,78.90
2023-03-13T14:48:32.989Z,79.05
2023-03-13T14:51:15.724Z,78.90
2023-03-13T14:53:57.820Z,79.15
2023-03-13T14:56:41.596Z,79.37
2023-03-13T14:59:22.786Z,79.35
2023-03-13T15:02:18.712Z,79.43
2023-03-13T15:05:01.009Z,79.19
2023-03-13T15:07:41.307Z,79.38
2023-03-13T15:10:32.138Z,79.38
2023-03-13T15:12:58.911Z,79.29
2023-03-13T15:15:25.440Z,79.12
2023-03-13T15:17:52.247Z,79.07
2023-03-13T15:20:20.362Z,79.19
2023-03-13T15:22:46.984Z,79.06
2023-03-13T15:25:19.137Z,79.08
2023-03-13T15:27:46.925Z,78.98
2023-03-13T15:30:23.095Z,78.82
2023-03-13T15:32:50.319Z,78.71
2023-03-13T15:35:34.411Z,78.54
2023-03-13T15:38:04.098Z,78.54
2023-03-13T15:40:30.799Z,78.40
2023-03-13T15:42:58.768Z,78.28
2023-03-13T15:45:25.405Z,78.54
2023-03-13T15:47:53.768Z,78.64
2023-03-13T15:50:23.141Z,78.59
2023-03-13T15:52:49.762Z,78.70
2023-03-13T15:55:16.481Z,78.58
2023-03-13T15:57:49.398Z,78.53
2023-03-13T16:00:20.954Z,78.34
2023-03-13T16:02:47.862Z,78.37
2023-03-13T16:05:15.213Z,78.36
2023-03-13T16:07:42.208Z,78.29
2023-03-13T16:10:19.412Z,78.08
2023-03-13T16:12:46.226Z,77.99
2023-03-13T16:15:13.057Z,77.89
2023-03-13T16:17:39.643Z,77.85
2023-03-13T16:20:15.783Z,77.76
2023-03-13T16:22:43.026Z,77.59
2023-03-13T16:25:10.406Z,77.41
2023-03-13T16:27:37.059Z,77.20
2023-03-13T16:30:06.780Z,77.01
2023-03-13T16:32:33.558Z,76.84
2023-03-13T16:35:07.482Z,76.81
2023-03-13T16:37:41.724Z,76.57
2023-03-13T16:40:30.106Z,76.14
2023-03-13T16:42:57.131Z,76.15
2023-03-13T16:45:23.722Z,75.84
2023-03-13T16:47:50.527Z,75.78
2023-03-13T16:50:17.779Z,75.70
2023-03-13T16:52:44.366Z,74.98
2023-03-13T16:55:10.934Z,75.11
2023-03-13T16:57:37.798Z,74.76
2023-03-13T17:00:13.845Z,74.52
2023-03-13T17:02:40.674Z,74.20
2023-03-13T17:05:07.748Z,73.87
2023-03-13T17:07:34.398Z,73.80
2023-03-13T17:10:01.467Z,73.69
2023-03-13T17:12:31.225Z,73.14
2023-03-13T17:15:00.342Z,72.72
2023-03-13T17:17:27.300Z,72.47
2023-03-13T17:19:54.949Z,72.51
2023-03-13T17:22:22.538Z,72.50
2023-03-13T17:24:49.457Z,72.43
2023-03-13T17:27:17.433Z,72.20
2023-03-13T17:29:44.483Z,72.12
2023-03-13T17:32:13.241Z,71.61
2023-03-13T17:34:41.069Z,71.12
2023-03-13T17:37:19.473Z,71.03
2023-03-13T17:39:47.743Z,70.66
2023-03-13T17:42:14.311Z,71.13
2023-03-13T17:44:41.111Z,70.85
2023-03-13T17:47:16.768Z,70.71
2023-03-13T17:49:45.769Z,70.01
2023-03-13T17:52:14.430Z,69.69
2023-03-13T17:54:41.755Z,69.90
2023-03-13T17:57:18.300Z,69.17
2023-03-13T17:59:46.107Z,69.57
2023-03-13T18:02:15.255Z,69.36
2023-03-13T18:04:43.025Z,69.34
2023-03-13T18:07:25.620Z,69.20
2023-03-13T18:09:52.397Z,68.74
2023-03-13T18:12:19.397Z,68.89
2023-03-13T18:14:46.383Z,69.01
2023-03-13T18:17:22.646Z,69.01
2023-03-13T18:19:50.196Z,68.27
2023-03-13T18:22:20.926Z,68.53
2023-03-13T18:24:48.268Z,68.18
2023-03-13T18:27:19.572Z,67.70
2023-03-13T18:29:48.553Z,67.99
2023-03-13T18:32:18.666Z,67.64
2023-03-13T18:34:48.468Z,67.76
2023-03-13T18:37:28.060Z,67.96
2023-03-13T18:39:55.452Z,67.64
2023-03-13T18:42:23.466Z,67.18
2023-03-13T18:44:50.606Z,67.16
2023-03-13T18:47:20.025Z,67.43
2023-03-13T18:49:48.156Z,67.26
2023-03-13T18:52:15.347Z,66.63
2023-03-13T18:54:43.905Z,66.81
2023-03-13T18:57:15.849Z,66.95
2023-03-13T18:59:43.685Z,66.59
2023-03-13T19:02:17.934Z,66.53
2023-03-13T19:04:46.455Z,66.57
2023-03-13T19:07:24.009Z,66.55
2023-03-13T19:09:50.807Z,65.89
2023-03-13T19:12:17.498Z,66.04
2023-03-13T19:14:44.228Z,65.60
2023-03-13T19:17:24.109Z,65.27
2023-03-13T19:19:50.917Z,65.72
2023-03-13T19:22:17.709Z,65.45
2023-03-13T19:24:44.502Z,65.31
2023-03-13T19:27:14.087Z,65.19
2023-03-13T19:29:40.842Z,65.16
2023-03-13T19:32:13.307Z,65.39
2023-03-13T19:34:40.067Z,64.99
2023-03-13T19:37:10.424Z,65.08
2023-03-13T19:39:37.073Z,65.25
2023-03-13T19:42:05.935Z,65.31
2023-03-13T19:44:32.626Z,64.91
2023-03-13T19:47:00.001Z,64.63
2023-03-13T19:49:27.898Z,65.01
2023-03-13T19:51:54.602Z,64.65
2023-03-13T19:54:23.680Z,64.62
2023-03-13T19:56:50.539Z,63.96
2023-03-13T19:59:18.867Z,64.48
2023-03-13T20:01:45.730Z,64.32
2023-03-13T20:04:13.179Z,64.19
2023-03-13T20:06:41.272Z,64.34
2023-03-13T20:09:11.499Z,64.47
2023-03-13T20:11:38.745Z,63.99
2023-03-13T20:14:06.120Z,64.18
2023-03-13T20:16:34.948Z,64.27
2023-03-13T20:19:02.753Z,64.29
2023-03-13T20:21:31.907Z,64.10
2023-03-13T20:23:59.670Z,64.39
2023-03-13T20:26:27.585Z,64.42
2023-03-13T20:28:55.337Z,64.06
2023-03-13T20:31:28.681Z,64.39
2023-03-13T20:33:58.390Z,64.35
2023-03-13T20:36:26.173Z,64.25
2023-03-13T20:38:53.270Z,64.33
2023-03-13T20:41:24.009Z,64.53
2023-03-13T20:43:51.699Z,64.11
2023-03-13T20:46:18.661Z,63.86
2023-03-13T20:48:45.600Z,63.87
2023-03-13T20:51:12.602Z,63.79
2023-03-13T20:53:40.593Z,64.02
2023-03-13T20:56:08.874Z,63.86
2023-03-13T20:58:36.618Z,63.49
2023-03-13T21:01:05.526Z,63.52
2023-03-13T21:03:34.612Z,63.42
2023-03-13T21:06:11.449Z,62.83
2023-03-13T21:08:39.018Z,63.24
2023-03-13T21:11:17.949Z,63.43
2023-03-13T21:13:45.125Z,62.83
2023-03-13T21:16:14.112Z,62.99
2023-03-13T21:18:41.746Z,62.95
2023-03-13T21:21:16.403Z,62.82
2023-03-13T21:23:43.394Z,62.73
2023-03-13T21:26:10.699Z,62.59
2023-03-13T21:28:38.600Z,62.52
2023-03-13T21:31:17.026Z,62.30
2023-03-13T21:33:44.623Z,62.16
2023-03-13T21:36:12.434Z,62.17
2023-03-13T21:38:39.276Z,62.36
2023-03-13T21:41:08.439Z,62.10
2023-03-13T21:43:36.695Z,62.43
2023-03-13T21:46:03.500Z,62.61
2023-03-13T21:48:30.243Z,62.82
2023-03-13T21:50:56.989Z,62.50
2023-03-13T21:53:23.722Z,62.54
2023-03-13T21:55:51.483Z,62.50
2023-03-13T21:58:18.270Z,62.97
2023-03-13T22:00:45.253Z,62.48
2023-03-13T22:03:12.533Z,62.53
2023-03-13T22:05:44.397Z,62.47
2023-03-13T22:08:12.613Z,62.88
2023-03-13T22:10:39.544Z,62.78
2023-03-13T22:13:11.917Z,62.90
2023-03-13T22:15:38.686Z,62.95
2023-03-13T22:18:05.323Z,63.08
2023-03-13T22:20:32.094Z,63.18
2023-03-13T22:22:58.996Z,62.99
2023-03-13T22:25:26.031Z,62.81
2023-03-13T22:27:52.655Z,63.02
2023-03-13T22:30:19.517Z,63.21
2023-03-13T22:32:46.217Z,62.87
2023-03-13T22:35:12.999Z,63.08
2023-03-13T22:37:39.667Z,63.25
2023-03-13T22:40:06.886Z,63.16
2023-03-13T22:42:33.417Z,63.22
2023-03-13T22:45:00.111Z,63.18
2023-03-13T22:47:26.880Z,63.11
2023-03-13T22:49:53.428Z,63.31
2023-03-13T22:52:21.665Z,63.32
2023-03-13T22:54:48.334Z,63.29
2023-03-13T22:57:14.818Z,63.08
2023-03-13T22:59:41.501Z,63.19
2023-03-13T23:02:08.120Z,63.09
2023-03-13T23:04:34.710Z,63.05
2023-03-13T23:07:01.540Z,62.96
2023-03-13T23:09:28.155Z,62.94
2023-03-13T23:11:54.682Z,62.83
2023-03-13T23:14:21.542Z,62.91
2023-03-13T23:16:48.415Z,62.66
2023-03-13T23:19:14.941Z,62.93
2023-03-13T23:21:41.683Z,63.15
2023-03-13T23:24:08.338Z,63.01
2023-03-13T23:26:35.107Z,62.97
2023-03-13T23:29:01.902Z,63.08
2023-03-13T23:31:28.930Z,62.75
2023-03-13T23:33:55.627Z,63.08
2023-03-13T23:36:22.245Z,62.80
2023-03-13T23:38:50.952Z,62.88
2023-03-13T23:41:21.405Z,62.78
2023-03-13T23:43:48.075Z,63.02
2023-03-13T23:46:21.379Z,62.78
2023-03-13T23:48:47.951Z,62.92
2023-03-13T23:51:14.610Z,62.91
2023-03-13T23:53:42.361Z,62.84
2023-03-13T23:56:10.059Z,62.94
2023-03-13T23:58:36.742Z,63.07
